Time;durP1;ratioP1;P1;durP2;ratioP2;P2;SDS_P1;SDS_P2;PMS_P1;PMS_P2;Temp;Humidity;BMP_temperature;BMP_pressure;BME280_temperature;BME280_humidity;BME280_pressure;Samples;Min_cycle;Max_cycle;Signal;HPM_P1;HPM_P2
2022/11/20 00:00:55;;;;;;;;;0.00;0.00;;;;;8.94;75.09;100691.63;5058846;28;45438;-79
2022/11/20 00:03:21;;;;;;;;;0.00;0.00;;;;;8.96;75.22;100705.59;5041007;28;45348;-79
2022/11/20 00:05:46;;;;;;;;;12.00;11.25;;;;;8.60;75.35;100647.75;5040976;28;45499;-79
2022/11/20 00:08:12;;;;;;;;;29.00;26.00;;;;;9.03;75.25;100722.38;5058743;28;45520;-79
2022/11/20 00:10:40;;;;;;;;;18.50;16.75;;;;;8.85;74.82;100677.34;5058035;28;45348;-79
2022/11/20 00:13:07;;;;;;;;;24.50;21.50;;;;;9.08;74.73;100712.13;5058936;28;45474;-79
2022/11/20 00:15:33;;;;;;;;;22.25;21.75;;;;;9.10;74.77;100715.66;5059124;28;45465;-79
2022/11/20 00:17:58;;;;;;;;;25.25;23.25;;;;;9.12;74.73;100721.81;5058355;28;45874;-80
2022/11/20 00:20:24;;;;;;;;;21.75;17.25;;;;;9.14;74.64;100713.22;5058630;28;45592;-79
2022/11/20 00:22:50;;;;;;;;;21.75;19.50;;;;;9.14;74.27;100715.84;5040340;28;45380;-79
2022/11/20 00:25:16;;;;;;;;;22.75;20.75;;;;;8.99;74.48;100693.50;5058561;28;45516;-79
2022/11/20 00:27:42;;;;;;;;;27.75;22.50;;;;;8.99;74.19;100683.09;5056907;28;47838;-79
2022/11/20 00:30:08;;;;;;;;;16.50;13.75;;;;;9.06;73.80;100690.31;5040101;28;45450;-78
2022/11/20 00:32:33;;;;;;;;;29.25;25.75;;;;;9.21;73.84;100711.75;5058854;28;45302;-79
2022/11/20 00:34:59;;;;;;;;;43.50;36.25;;;;;9.18;74.07;100708.16;5057059;28;45592;-79
2022/11/20 00:37:25;;;;;;;;;54.00;41.25;;;;;9.20;74.12;100714.31;5058180;28;46361;-79
2022/11/20 00:39:51;;;;;;;;;32.75;30.00;;;;;9.27;74.10;100711.09;5058194;28;45197;-79
2022/11/20 00:42:16;;;;;;;;;28.50;25.00;;;;;9.10;74.27;100681.78;5058157;28;45464;-79
2022/11/20 00:44:42;;;;;;;;;31.00;28.25;;;;;9.09;74.18;100685.22;5058614;28;45443;-79
2022/11/20 00:47:07;;;;;;;;;41.25;35.25;;;;;9.21;74.55;100701.34;5058623;28;45163;-79
2022/11/20 00:49:33;;;;;;;;;32.50;28.75;;;;;9.06;74.73;100674.69;5057051;28;45497;-79
2022/11/20 00:51:58;;;;;;;;;43.50;36.25;;;;;9.19;74.90;100695.19;5058256;28;45295;-79
2022/11/20 00:54:24;;;;;;;;;33.00;27.75;;;;;9.14;74.92;100688.91;5058339;28;45304;-79
2022/11/20 00:56:49;;;;;;;;;36.25;34.75;;;;;9.19;74.91;100689.06;5057882;28;46486;-79
2022/11/20 00:59:15;;;;;;;;;40.25;34.25;;;;;9.14;74.97;100681.06;5057915;28;45337;-79
2022/11/20 01:01:40;;;;;;;;;34.00;28.00;;;;;9.09;75.04;100660.06;5039652;28;45526;-78
2022/11/20 01:04:06;;;;;;;;;40.00;33.75;;;;;9.14;74.74;100668.03;5040251;28;45586;-79
2022/11/20 01:06:34;;;;;;;;;37.00;33.75;;;;;9.29;74.66;100694.69;5039739;28;48059;-79
2022/11/20 01:09:10;;;;;;;;;52.50;41.25;;;;;9.34;74.71;100700.94;5056430;28;45715;-79
2022/11/20 01:11:38;;;;;;;;;44.25;38.50;;;;;9.33;74.42;100696.59;5056670;28;45276;-78
2022/11/20 01:14:07;;;;;;;;;39.50;35.50;;;;;9.34;74.52;100698.34;5058399;28;45442;-79
2022/11/20 01:16:38;;;;;;;;;57.50;46.00;;;;;9.22;74.43;100670.94;5057834;28;45409;-79
2022/11/20 01:19:07;;;;;;;;;53.00;41.00;;;;;9.33;74.30;100691.38;5056462;28;45438;-79
2022/11/20 01:21:35;;;;;;;;;26.50;23.50;;;;;9.32;74.31;100681.75;5057814;28;45497;-79
2022/11/20 01:24:01;;;;;;;;;8.00;8.00;;;;;9.40;74.31;100683.78;5057778;28;45250;-79
2022/11/20 01:26:30;;;;;;;;;6.50;6.00;;;;;9.30;74.54;100680.81;5039275;28;48014;-78
2022/11/20 01:28:56;;;;;;;;;29.25;24.25;;;;;9.40;74.37;100695.06;5057182;28;45292;-79
2022/11/20 01:31:25;;;;;;;;;26.50;25.75;;;;;9.41;74.42;100682.91;5057209;28;45224;-79
2022/11/20 01:33:53;;;;;;;;;24.00;22.25;;;;;9.44;74.07;100693.47;5057535;28;45211;-78
2022/11/20 01:36:21;;;;;;;;;18.00;16.50;;;;;9.40;73.88;100688.97;5055774;28;46765;-78
2022/11/20 01:38:47;;;;;;;;;18.25;16.00;;;;;9.47;73.55;100691.88;5039003;28;45289;-78
2022/11/20 01:43:20;;;;;;;;;33.25;29.50;;;;;9.16;73.65;100650.75;5057359;28;45256;-78
2022/11/20 01:44:01;;;;;;;;;41.50;36.50;;;;;9.48;73.51;100693.63;5057534;28;45399;-78
2022/11/20 01:46:27;;;;;;;;;11.00;11.00;;;;;9.49;73.03;100686.69;5056974;28;45303;-79
2022/11/20 01:49:02;;;;;;;;;29.00;26.75;;;;;9.50;73.08;100689.38;5038659;28;45563;-78
2022/11/20 01:51:45;;;;;;;;;23.00;20.00;;;;;9.51;72.67;100687.63;5057231;28;45426;-79
2022/11/20 01:54:28;;;;;;;;;24.75;21.25;;;;;9.08;72.94;100606.16;5057834;28;45260;-78
2022/11/20 01:56:59;;;;;;;;;15.50;15.25;;;;;9.48;72.80;100678.00;5057126;28;46162;-78
2022/11/20 01:59:27;;;;;;;;;11.00;11.00;;;;;9.50;72.43;100675.44;5056994;28;45396;-79
2022/11/20 02:01:53;;;;;;;;;18.50;17.25;;;;;9.43;72.41;100661.31;5057246;28;45261;-79
2022/11/20 02:04:20;;;;;;;;;11.00;10.00;;;;;9.25;72.52;100630.25;5057435;28;45367;-79
2022/11/20 02:06:51;;;;;;;;;13.25;12.25;;;;;9.39;72.49;100658.50;5056941;28;46190;-78
2022/11/20 02:09:17;;;;;;;;;23.00;21.50;;;;;9.50;72.38;100672.84;5038889;28;45562;-78
2022/11/20 02:11:43;;;;;;;;;20.25;18.25;;;;;9.35;72.30;100648.00;5038901;28;45275;-78
2022/11/20 02:14:09;;;;;;;;;31.25;27.25;;;;;9.45;72.62;100661.34;5057434;28;45476;-78
2022/11/20 02:16:41;;;;;;;;;12.75;12.75;;;;;9.43;72.84;100660.41;5056858;28;46318;-78
2022/11/20 02:19:16;;;;;;;;;5.50;5.50;;;;;9.21;72.93;100619.63;5056698;28;45331;-79
2022/11/20 02:21:59;;;;;;;;;15.00;13.00;;;;;9.31;73.06;100639.97;5057322;28;45339;-77
2022/11/20 02:24:24;;;;;;;;;9.25;8.75;;;;;9.38;72.39;100647.19;5057056;28;45440;-79
2022/11/20 02:27:07;;;;;;;;;14.25;13.25;;;;;9.43;72.58;100657.78;5056612;28;45269;-78
2022/11/20 02:29:46;;;;;;;;;14.75;12.25;;;;;9.41;72.47;100638.59;5056817;28;45274;-78
2022/11/20 02:32:26;;;;;;;;;7.50;7.50;;;;;9.10;72.40;100588.84;5057196;28;45335;-79
2022/11/20 02:34:52;;;;;;;;;3.50;3.50;;;;;9.49;72.51;100656.31;5059108;28;45458;-78
2022/11/20 02:37:19;;;;;;;;;9.50;9.00;;;;;9.43;72.53;100634.31;5042072;28;45445;-78
2022/11/20 02:39:47;;;;;;;;;8.00;8.00;;;;;9.44;72.39;100631.78;5060459;28;45332;-78
2022/11/20 02:42:13;;;;;;;;;6.25;6.25;;;;;9.43;72.54;100629.09;5059097;28;45281;-78
2022/11/20 02:44:39;;;;;;;;;10.00;8.25;;;;;9.45;72.08;100635.25;5059340;28;45489;-79
2022/11/20 02:47:04;;;;;;;;;13.50;12.00;;;;;9.36;72.10;100612.38;5041936;28;46905;-78
2022/11/20 02:49:30;;;;;;;;;10.00;10.00;;;;;9.48;72.25;100630.16;5060008;28;45528;-78
2022/11/20 02:51:56;;;;;;;;;10.00;10.00;;;;;9.53;72.03;100639.94;5058542;28;45462;-79
2022/11/20 02:54:22;;;;;;;;;9.50;9.50;;;;;9.42;71.88;100616.91;5042128;28;45660;-78
2022/11/20 02:56:48;;;;;;;;;9.00;6.75;;;;;9.46;72.31;100619.69;5059940;28;45349;-78
2022/11/20 02:59:13;;;;;;;;;8.00;7.00;;;;;9.49;72.08;100626.72;5060237;28;45357;-78
2022/11/20 03:01:39;;;;;;;;;10.25;9.00;;;;;9.49;72.14;100603.25;5058567;28;45494;-77
2022/11/20 03:04:04;;;;;;;;;3.00;3.00;;;;;9.45;72.49;100588.31;5041905;28;45323;-78
2022/11/20 03:06:31;;;;;;;;;5.25;5.00;;;;;9.42;72.70;100583.03;5041525;28;47732;-79
2022/11/20 03:08:56;;;;;;;;;4.75;4.75;;;;;9.47;72.58;100607.53;5058487;28;45489;-78
2022/11/20 03:11:22;;;;;;;;;4.50;4.00;;;;;9.42;72.44;100596.94;5059789;28;45465;-79
2022/11/20 03:13:47;;;;;;;;;4.00;2.50;;;;;9.27;72.35;100589.47;5060035;28;45187;-78
2022/11/20 03:16:16;;;;;;;;;4.00;4.00;;;;;9.31;72.62;100596.56;5041742;28;46881;-78
2022/11/20 03:18:42;;;;;;;;;5.00;5.00;;;;;9.27;73.03;100593.78;5041734;28;45309;-78
2022/11/20 03:21:09;;;;;;;;;4.25;3.50;;;;;9.26;73.07;100594.63;5058248;28;45580;-78
2022/11/20 03:23:36;;;;;;;;;6.50;4.00;;;;;9.22;73.37;100577.09;5059784;28;45490;-78
2022/11/20 03:26:20;;;;;;;;;6.25;5.00;;;;;9.20;73.10;100573.56;5059473;28;45451;-78
2022/11/20 03:28:56;;;;;;;;;3.75;3.75;;;;;9.14;72.75;100538.59;5059775;28;45343;-78
2022/11/20 03:31:25;;;;;;;;;5.50;4.25;;;;;9.31;72.81;100556.56;5058238;28;45501;-78
2022/11/20 03:33:51;;;;;;;;;4.25;4.00;;;;;9.16;72.84;100528.25;5058220;28;45557;-78
2022/11/20 03:36:18;;;;;;;;;3.00;3.00;;;;;9.30;73.01;100558.28;5059585;28;45238;-79
2022/11/20 03:38:44;;;;;;;;;2.25;2.00;;;;;9.27;72.94;100547.75;5059874;28;45322;-79
2022/11/20 03:41:21;;;;;;;;;3.25;3.00;;;;;9.12;72.96;100526.38;5060864;28;45505;-79
2022/11/20 03:43:50;;;;;;;;;1.00;1.00;;;;;9.36;72.82;100555.88;5068883;28;45228;-78
2022/11/20 03:46:16;;;;;;;;;2.00;2.00;;;;;9.41;72.93;100557.78;5082872;28;45488;-78
2022/11/20 03:48:41;;;;;;;;;2.75;2.00;;;;;9.33;72.96;100537.56;5052040;28;45399;-77
2022/11/20 03:51:27;;;;;;;;;1.00;1.00;;;;;9.43;72.99;100556.09;5061481;28;45221;-79
2022/11/20 03:53:56;;;;;;;;;4.00;3.00;;;;;9.46;72.51;100564.03;5062125;28;45466;-79
2022/11/20 03:56:28;;;;;;;;;3.00;0.00;;;;;9.40;72.50;100545.59;5041356;28;47743;-78
2022/11/20 03:58:54;;;;;;;;;1.00;1.00;;;;;9.41;72.16;100552.56;5059700;28;45449;-79
2022/11/20 04:01:29;;;;;;;;;1.50;1.50;;;;;9.52;71.62;100562.53;5059188;28;45254;-78
2022/11/20 04:03:56;;;;;;;;;0.00;0.00;;;;;9.49;71.90;100549.41;5059313;28;45461;-79
2022/11/20 04:06:24;;;;;;;;;0.00;0.00;;;;;9.42;71.64;100531.75;5058910;28;45303;-79
2022/11/20 04:08:50;;;;;;;;;0.50;0.50;;;;;9.50;72.10;100545.06;5058817;28;45362;-78
2022/11/20 04:11:22;;;;;;;;;0.25;0.00;;;;;9.11;72.13;100472.47;5059215;28;45303;-79
2022/11/20 04:13:55;;;;;;;;;1.00;1.00;;;;;9.54;71.78;100540.00;5059501;28;45501;-79
2022/11/20 04:16:22;;;;;;;;;2.00;1.00;;;;;9.53;71.89;100530.41;5058696;28;46181;-78
2022/11/20 04:18:56;;;;;;;;;1.00;1.00;;;;;9.67;71.76;100562.19;5059054;28;45514;-79
2022/11/20 04:21:22;;;;;;;;;0.25;0.00;;;;;9.69;71.70;100555.28;5058809;28;45382;-78
2022/11/20 04:23:49;;;;;;;;;1.25;1.00;;;;;9.58;71.85;100530.56;5059318;28;45385;-79
2022/11/20 04:26:15;;;;;;;;;1.25;1.00;;;;;9.72;71.74;100546.66;5058647;28;46409;-79
2022/11/20 04:28:40;;;;;;;;;1.00;0.75;;;;;9.52;71.12;100510.38;5058585;28;45335;-79
2022/11/20 04:31:08;;;;;;;;;0.33;0.00;;;;;9.70;71.03;100536.19;5057181;28;45540;-78
2022/11/20 04:33:35;;;;;;;;;0.00;0.00;;;;;9.79;70.38;100533.00;5057269;28;45581;-79
2022/11/20 04:36:07;;;;;;;;;1.00;1.00;;;;;9.80;70.55;100536.50;5058133;28;46468;-79
2022/11/20 04:38:33;;;;;;;;;0.00;0.00;;;;;9.80;70.47;100534.75;5058302;28;45433;-79
2022/11/20 04:41:00;;;;;;;;;0.00;0.00;;;;;9.82;70.67;100534.81;5058549;28;45472;-79
2022/11/20 04:43:26;;;;;;;;;0.00;0.00;;;;;9.68;70.31;100516.97;5058565;28;45377;-79
2022/11/20 04:45:53;;;;;;;;;1.00;0.33;;;;;9.75;70.17;100532.00;5058496;28;46164;-77
2022/11/20 04:48:18;;;;;;;;;0.00;0.00;;;;;9.71;69.99;100506.66;5058439;28;45213;-79
2022/11/20 04:50:44;;;;;;;;;0.00;0.00;;;;;9.71;70.24;100509.28;5040203;28;45258;-79
2022/11/20 04:53:09;;;;;;;;;1.00;0.67;;;;;9.85;69.96;100532.31;5058406;28;45439;-79
2022/11/20 04:55:35;;;;;;;;;0.00;0.00;;;;;9.70;70.37;100507.47;5057982;28;45537;-78
2022/11/20 04:58:00;;;;;;;;;0.00;0.00;;;;;9.75;70.43;100518.09;5057726;28;45461;-78
2022/11/20 05:00:26;;;;;;;;;0.00;0.00;;;;;9.79;70.48;100534.69;5056843;28;45463;-78
2022/11/20 05:02:51;;;;;;;;;1.00;0.00;;;;;9.75;70.97;100529.41;5057214;28;45512;-79
2022/11/20 05:05:17;;;;;;;;;0.00;0.00;;;;;9.62;71.31;100527.22;5057018;28;47977;-78
2022/11/20 05:07:43;;;;;;;;;0.00;0.00;;;;;9.68;70.76;100535.25;5058000;28;45552;-79
2022/11/20 05:10:09;;;;;;;;;0.00;0.00;;;;;9.59;70.72;100516.69;5058299;28;45529;-78
2022/11/20 05:12:34;;;;;;;;;0.00;0.00;;;;;9.70;70.54;100532.69;5056914;28;45573;-79
2022/11/20 05:15:00;;;;;;;;;0.00;0.00;;;;;9.48;70.67;100491.97;5057904;28;45402;-79
2022/11/20 05:17:25;;;;;;;;;0.00;0.00;;;;;9.59;71.07;100519.31;5056327;28;45500;-78
2022/11/20 05:19:51;;;;;;;;;0.00;0.00;;;;;9.42;71.30;100497.84;5057841;28;45443;-79
2022/11/20 05:22:16;;;;;;;;;0.00;0.00;;;;;9.27;71.33;100487.81;5058071;28;45554;-78
2022/11/20 05:24:42;;;;;;;;;0.00;0.00;;;;;9.38;71.38;100524.66;5057524;28;46174;-78
2022/11/20 05:27:07;;;;;;;;;1.00;0.00;;;;;9.31;71.88;100518.38;5039652;28;45531;-79
2022/11/20 05:29:33;;;;;;;;;0.00;0.00;;;;;9.14;71.35;100489.09;5056277;28;45405;-78
2022/11/20 05:31:58;;;;;;;;;0.50;0.50;;;;;9.25;70.86;100484.28;5039258;28;45565;-79
2022/11/20 05:34:24;;;;;;;;;0.25;0.00;;;;;9.54;70.58;100524.34;5058078;28;45527;-79
2022/11/20 05:36:49;;;;;;;;;0.00;0.00;;;;;9.38;70.94;100495.09;5057811;28;45436;-78
2022/11/20 05:39:15;;;;;;;;;0.00;0.00;;;;;9.49;70.55;100511.97;5039619;28;45489;-79
2022/11/20 05:41:40;;;;;;;;;0.00;0.00;;;;;9.47;70.74;100501.53;5057916;28;45359;-79
2022/11/20 05:44:06;;;;;;;;;0.00;0.00;;;;;9.50;70.54;100490.28;5056043;28;47163;-79
2022/11/20 05:46:32;;;;;;;;;0.00;0.00;;;;;9.47;70.67;100485.88;5057263;28;45540;-79
2022/11/20 05:48:58;;;;;;;;;0.00;0.00;;;;;9.64;70.38;100503.78;5039282;28;45368;-79
2022/11/20 05:51:24;;;;;;;;;0.00;0.00;;;;;9.72;70.21;100508.41;5056544;28;45634;-79
2022/11/20 05:53:50;;;;;;;;;0.00;0.00;;;;;9.58;69.99;100486.22;5056040;28;48015;-79
2022/11/20 05:56:18;;;;;;;;;0.00;0.00;;;;;9.74;70.13;100505.88;5057246;28;45451;-79
2022/11/20 05:58:44;;;;;;;;;0.00;0.00;;;;;9.69;69.94;100503.13;5057525;28;45236;-79
2022/11/20 06:01:27;;;;;;;;;0.00;0.00;;;;;9.75;69.10;100487.66;5057528;28;45453;-79
2022/11/20 06:03:54;;;;;;;;;0.00;0.00;;;;;9.68;69.05;100484.81;5056119;28;46801;-79
2022/11/20 06:06:20;;;;;;;;;0.00;0.00;;;;;9.75;69.45;100498.09;5057297;28;45363;-79
2022/11/20 06:08:46;;;;;;;;;0.00;0.00;;;;;9.84;69.15;100510.53;5056291;28;45249;-79
2022/11/20 06:11:13;;;;;;;;;0.00;0.00;;;;;9.87;69.22;100507.16;5055837;28;45528;-79
2022/11/20 06:13:42;;;;;;;;;0.00;0.00;;;;;9.91;69.08;100509.03;5055582;28;45463;-79
2022/11/20 06:16:09;;;;;;;;;0.00;0.00;;;;;9.94;69.05;100498.69;5057167;28;45311;-79
2022/11/20 06:18:35;;;;;;;;;0.00;0.00;;;;;9.76;68.85;100468.53;5038993;28;45336;-79
2022/11/20 06:21:17;;;;;;;;;0.00;0.00;;;;;9.83;69.00;100485.31;5055651;28;45223;-79
2022/11/20 06:23:44;;;;;;;;;0.00;0.00;;;;;9.66;69.50;100479.53;5056988;28;45507;-79
2022/11/20 06:26:15;;;;;;;;;0.00;0.00;;;;;9.68;69.69;100487.41;5056688;28;45470;-78
2022/11/20 06:28:44;;;;;;;;;0.00;0.00;;;;;9.62;69.21;100477.66;5056760;28;45403;-79
2022/11/20 06:31:13;;;;;;;;;0.00;0.00;;;;;9.46;69.15;100459.75;5057110;28;45300;-80
2022/11/20 06:33:38;;;;;;;;;0.00;0.00;;;;;9.63;69.41;100502.91;5056861;28;45572;-78
2022/11/20 06:36:05;;;;;;;;;0.00;0.00;;;;;9.48;69.30;100473.72;5056729;28;45395;-78
2022/11/20 06:38:30;;;;;;;;;0.00;0.00;;;;;9.60;69.69;100492.38;5056947;28;45292;-79
2022/11/20 06:40:56;;;;;;;;;0.00;0.00;;;;;9.62;69.85;100495.91;5055729;28;45307;-78
2022/11/20 06:43:23;;;;;;;;;0.75;0.00;;;;;9.66;70.21;100505.59;5056703;28;45519;-78
2022/11/20 06:45:56;;;;;;;;;0.00;0.00;;;;;9.46;70.14;100464.97;5056901;28;45196;-78
2022/11/20 06:48:23;;;;;;;;;0.00;0.00;;;;;9.78;70.07;100509.47;5056551;28;45291;-78
2022/11/20 06:50:48;;;;;;;;;0.00;0.00;;;;;9.71;69.73;100480.56;5056900;28;45373;-78
2022/11/20 06:53:14;;;;;;;;;0.00;0.00;;;;;9.73;69.57;100489.34;5056253;28;45480;-78
2022/11/20 06:55:47;;;;;;;;;0.00;0.00;;;;;9.87;69.73;100515.00;5038420;28;45591;-78
2022/11/20 06:58:14;;;;;;;;;0.00;0.00;;;;;9.71;69.71;100480.56;5056766;28;45509;-78
2022/11/20 07:00:40;;;;;;;;;0.00;0.00;;;;;9.98;69.33;100520.53;5056846;28;45228;-79
2022/11/20 07:03:08;;;;;;;;;1.00;1.00;;;;;10.03;69.39;100513.75;5056246;28;45296;-79
2022/11/20 07:05:35;;;;;;;;;0.50;0.50;;;;;9.97;69.31;100514.44;5056454;28;45473;-78
2022/11/20 07:08:01;;;;;;;;;0.00;0.00;;;;;10.11;68.82;100512.28;5056231;28;45469;-78
2022/11/20 07:10:26;;;;;;;;;0.00;0.00;;;;;9.95;69.08;100475.25;5055266;28;45398;-79
2022/11/20 07:12:53;;;;;;;;;0.00;0.00;;;;;10.19;69.31;100512.50;5054661;28;47359;-78
2022/11/20 07:15:20;;;;;;;;;0.00;0.00;;;;;10.20;69.24;100524.72;5038393;28;45438;-79
2022/11/20 07:17:45;;;;;;;;;0.00;0.00;;;;;9.99;69.20;100478.84;5056478;28;45462;-79
2022/11/20 07:20:12;;;;;;;;;0.00;0.00;;;;;10.29;69.19;100517.19;5057566;28;45379;-79
2022/11/20 07:22:37;;;;;;;;;0.00;0.00;;;;;10.25;69.22;100510.09;5059286;28;45542;-79
2022/11/20 07:25:03;;;;;;;;;0.00;0.00;;;;;10.27;69.83;100492.75;5059599;28;45506;-79
2022/11/20 07:27:29;;;;;;;;;0.00;0.00;;;;;10.06;69.65;100461.63;5059809;28;45266;-78
2022/11/20 07:29:55;;;;;;;;;0.00;0.00;;;;;10.27;69.77;100492.75;5059799;28;45249;-78
2022/11/20 07:32:21;;;;;;;;;0.00;0.00;;;;;10.52;70.04;100521.41;5059159;28;46228;-79
2022/11/20 07:34:47;;;;;;;;;4.00;4.00;;;;;10.55;69.97;100537.16;5059422;28;45640;-78
2022/11/20 07:37:13;;;;;;;;;3.00;3.00;;;;;10.62;69.71;100547.78;5059366;28;45434;-79
2022/11/20 07:39:39;;;;;;;;;9.75;9.25;;;;;10.63;69.75;100565.25;5059207;28;45565;-79
2022/11/20 07:42:06;;;;;;;;;3.25;3.25;;;;;10.51;69.85;100550.09;5059096;28;45646;-79
2022/11/20 07:44:31;;;;;;;;;0.33;0.00;;;;;10.64;71.05;100600.97;5059893;28;45761;-79
2022/11/20 07:46:57;;;;;;;;;1.00;0.00;;;;;10.57;71.57;100588.56;5058455;28;45327;-79
2022/11/20 07:49:22;;;;;;;;;21.75;20.50;;;;;10.68;71.07;100594.97;5041087;28;45484;-79
2022/11/20 07:51:51;;;;;;;;;5.00;4.25;;;;;10.57;70.85;100578.13;5040769;28;45798;-80
2022/11/20 07:54:16;;;;;;;;;3.50;3.50;;;;;10.75;71.25;100617.84;5059369;28;45359;-79
2022/11/20 07:56:42;;;;;;;;;6.00;6.00;;;;;10.70;71.52;100611.59;5059058;28;45450;-79
2022/11/20 07:59:08;;;;;;;;;6.00;6.00;;;;;10.75;71.94;100631.78;5059143;28;45328;-79
2022/11/20 08:01:33;;;;;;;;;3.00;3.00;;;;;10.58;72.54;100606.88;5058956;28;45470;-78
2022/11/20 08:03:59;;;;;;;;;4.00;4.00;;;;;10.53;72.99;100611.97;5041000;28;45463;-80
2022/11/20 08:06:24;;;;;;;;;4.50;4.00;;;;;10.75;73.14;100667.50;5059089;28;45497;-80
2022/11/20 08:08:50;;;;;;;;;1.25;1.25;;;;;10.59;73.34;100636.53;5059079;28;45458;-80
2022/11/20 08:14:12;;;;;;;;;3.00;2.00;;;;;10.75;73.77;100668.38;5059453;28;45473;-80
2022/11/20 08:16:46;;;;;;;;;0.67;0.67;;;;;10.75;73.78;100675.34;5058916;28;45306;-79
2022/11/20 08:19:13;;;;;;;;;0.00;0.00;;;;;10.79;74.41;100655.44;5058986;28;45450;-80
2022/11/20 08:21:39;;;;;;;;;0.00;0.00;;;;;10.89;74.52;100657.47;5058546;28;46204;-79
2022/11/20 08:24:05;;;;;;;;;1.75;1.50;;;;;10.55;74.86;100578.06;5058597;28;45481;-78
2022/11/20 08:26:31;;;;;;;;;4.75;4.00;;;;;10.71;75.68;100600.31;5058881;28;45461;-79
2022/11/20 08:28:57;;;;;;;;;5.50;5.00;;;;;10.85;76.38;100616.41;5057117;28;45391;-79
2022/11/20 08:31:25;;;;;;;;;1.50;1.50;;;;;10.94;76.58;100627.13;5057633;28;46182;-80
2022/11/20 08:33:51;;;;;;;;;2.00;1.00;;;;;11.00;76.78;100624.72;5058440;28;45220;-79
2022/11/20 08:36:18;;;;;;;;;2.00;2.00;;;;;11.22;76.56;100639.28;5040240;28;45354;-79
2022/11/20 08:38:50;;;;;;;;;4.50;3.00;;;;;11.41;76.41;100622.38;5058668;28;45312;-80
2022/11/20 08:41:31;;;;;;;;;3.50;2.75;;;;;11.55;76.10;100602.69;5040128;28;46759;-80
2022/11/20 08:43:58;;;;;;;;;1.00;1.00;;;;;12.20;74.34;100634.94;5040259;28;45498;-80
2022/11/20 08:46:27;;;;;;;;;19.25;16.50;;;;;12.36;73.99;100637.09;5040155;28;45559;-80
2022/11/20 08:48:54;;;;;;;;;21.75;18.00;;;;;12.48;73.45;100641.72;5057038;28;45452;-79
2022/11/20 08:51:20;;;;;;;;;19.00;18.25;;;;;12.60;72.95;100665.59;5039944;28;47083;-80
2022/11/20 08:53:49;;;;;;;;;52.25;41.75;;;;;12.43;72.79;100628.50;5057868;28;45398;-80
2022/11/20 08:56:14;;;;;;;;;46.00;37.00;;;;;12.70;72.62;100654.47;5058051;28;45337;-80
2022/11/20 08:58:41;;;;;;;;;25.75;23.50;;;;;12.67;72.29;100637.78;5058077;28;45400;-79
2022/11/20 09:01:06;;;;;;;;;19.25;16.00;;;;;12.86;72.17;100637.34;5039805;28;45341;-79
2022/11/20 09:03:32;;;;;;;;;25.50;21.00;;;;;13.00;71.62;100644.66;5056712;28;45328;-80
2022/11/20 09:06:00;;;;;;;;;14.50;12.25;;;;;12.99;71.87;100629.75;5058342;28;45394;-80
2022/11/20 09:08:26;;;;;;;;;9.75;9.00;;;;;12.97;71.94;100637.63;5058074;28;45327;-79
2022/11/20 09:10:55;;;;;;;;;10.75;9.50;;;;;13.19;71.11;100657.31;5058136;28;45482;-80
2022/11/20 09:13:23;;;;;;;;;10.00;9.00;;;;;13.27;70.99;100658.34;5057910;28;45468;-79
2022/11/20 09:15:59;;;;;;;;;7.00;6.75;;;;;13.26;71.27;100648.69;5057984;28;45307;-79
2022/11/20 09:18:27;;;;;;;;;4.67;4.00;;;;;13.32;71.13;100650.59;5056635;28;45569;-80
2022/11/20 09:20:56;;;;;;;;;3.00;2.67;;;;;13.43;70.71;100650.81;5057543;28;46490;-80
2022/11/20 09:23:22;;;;;;;;;3.00;3.00;;;;;13.60;70.21;100665.16;5039272;28;45415;-80
2022/11/20 09:25:48;;;;;;;;;4.00;3.33;;;;;13.75;70.08;100653.16;5056043;28;45427;-79
2022/11/20 09:28:13;;;;;;;;;4.00;4.00;;;;;13.97;68.81;100659.72;5057921;28;45225;-80
2022/11/20 09:30:39;;;;;;;;;3.00;3.00;;;;;14.08;69.20;100656.41;5057141;28;46166;-79
2022/11/20 09:33:05;;;;;;;;;5.00;5.00;;;;;14.19;69.23;100650.47;5057644;28;45366;-80
2022/11/20 09:35:32;;;;;;;;;10.50;9.00;;;;;14.31;68.37;100655.91;5039353;28;45391;-80
2022/11/20 09:37:57;;;;;;;;;25.75;22.75;;;;;14.38;68.87;100655.16;5056267;28;45292;-80
2022/11/20 09:40:28;;;;;;;;;11.25;10.25;;;;;14.52;68.93;100661.53;5057121;28;45453;-80
2022/11/20 09:43:05;;;;;;;;;5.33;4.00;;;;;14.63;68.49;100659.09;5056985;28;45508;-80
2022/11/20 09:45:53;;;;;;;;;6.00;6.00;;;;;14.73;67.79;100660.13;5056888;28;45337;-80
2022/11/20 09:48:31;;;;;;;;;5.00;4.00;;;;;14.76;67.66;100656.63;5057402;28;45310;-80
2022/11/20 09:51:33;;;;;;;;;6.00;5.33;;;;;14.94;67.82;100667.44;5057031;28;46225;-80
2022/11/20 09:54:19;;;;;;;;;7.00;6.00;;;;;14.99;67.79;100672.75;5057335;28;45456;-80
2022/11/20 09:56:58;;;;;;;;;6.00;4.00;;;;;14.84;68.19;100647.09;5057375;28;45707;-79
2022/11/20 09:59:41;;;;;;;;;1.00;1.00;;;;;15.01;68.09;100687.69;5057411;28;45513;-79
2022/11/20 10:02:29;;;;;;;;;2.00;2.00;;;;;14.95;68.26;100678.84;5056001;28;47390;-79
2022/11/20 10:05:06;;;;;;;;;10.67;10.00;;;;;14.74;68.55;100645.22;5056847;28;45458;-80
2022/11/20 10:07:55;;;;;;;;;3.00;3.00;;;;;15.01;67.69;100687.69;5055670;28;45451;-79
2022/11/20 10:10:34;;;;;;;;;2.67;2.67;;;;;15.06;67.42;100677.22;5057292;28;45217;-79
2022/11/20 10:13:12;;;;;;;;;5.33;5.00;;;;;15.11;67.29;100686.06;5038919;28;45641;-80
2022/11/20 10:16:05;;;;;;;;;5.33;4.00;;;;;15.07;67.56;100692.16;5039002;28;45533;-80
2022/11/20 10:18:51;;;;;;;;;7.00;5.00;;;;;15.08;67.47;100702.72;5038706;28;45560;-80
2022/11/20 10:22:01;;;;;;;;;5.33;4.00;;;;;15.03;67.87;100685.09;5057050;28;45307;-79
2022/11/20 10:24:55;;;;;;;;;6.67;6.00;;;;;15.30;67.37;100706.53;5036245;28;46790;-80
2022/11/20 10:27:56;;;;;;;;;6.67;5.00;;;;;15.51;66.83;100695.34;5038494;28;45380;-79
2022/11/20 10:30:24;;;;;;;;;2.00;1.00;;;;;15.58;66.96;100722.66;5038578;28;45465;-79
2022/11/20 10:32:58;;;;;;;;;7.00;5.67;;;;;15.44;67.10;100711.97;5056680;28;45600;-79
2022/11/20 10:35:26;;;;;;;;;2.00;1.00;;;;;15.55;67.29;100729.63;5038006;28;47039;-79
2022/11/20 10:38:00;;;;;;;;;3.67;2.33;;;;;15.47;67.40;100729.53;5038369;28;45526;-80
2022/11/20 10:40:25;;;;;;;;;2.33;2.00;;;;;15.50;67.67;100748.91;5055378;28;45435;-80
2022/11/20 10:42:59;;;;;;;;;4.00;3.00;;;;;15.62;67.75;100755.19;5038748;28;45562;-80
2022/11/20 10:45:24;;;;;;;;;6.67;4.00;;;;;15.63;67.54;100749.91;5056511;28;46219;-80
2022/11/20 10:47:59;;;;;;;;;1.00;1.00;;;;;15.59;67.34;100734.94;5056248;28;45185;-80
2022/11/20 10:50:26;;;;;;;;;4.00;2.00;;;;;15.76;67.40;100735.22;5038122;28;45304;-80
2022/11/20 10:53:25;;;;;;;;;3.00;3.00;;;;;15.64;67.17;100720.09;5055247;28;45464;-80
2022/11/20 10:56:03;;;;;;;;;5.33;4.00;;;;;15.81;67.51;100716.81;5040059;28;47241;-80
2022/11/20 10:58:52;;;;;;;;;4.00;2.00;;;;;15.94;66.92;100715.22;5058434;28;45307;-80
2022/11/20 11:01:23;;;;;;;;;5.00;4.00;;;;;15.89;67.26;100723.91;5058452;28;45494;-80
2022/11/20 11:03:50;;;;;;;;;3.00;1.33;;;;;15.81;67.86;100748.41;5060154;28;45320;-80
2022/11/20 11:06:36;;;;;;;;;2.00;1.33;;;;;15.75;68.13;100751.84;5041608;28;45902;-80
2022/11/20 11:09:13;;;;;;;;;2.67;2.00;;;;;15.59;68.46;100756.03;5059725;28;45363;-80
2022/11/20 11:11:39;;;;;;;;;2.67;1.00;;;;;15.73;68.42;100774.66;5060151;28;45356;-80
2022/11/20 11:14:08;;;;;;;;;2.33;1.00;;;;;15.82;68.31;100764.25;5059033;28;45398;-80
2022/11/20 11:16:35;;;;;;;;;5.00;2.00;;;;;16.05;68.31;100768.88;5059619;28;45524;-79
2022/11/20 11:19:12;;;;;;;;;3.33;2.00;;;;;16.05;67.78;100748.69;5059539;28;45176;-80
2022/11/20 11:21:54;;;;;;;;;3.67;3.33;;;;;16.24;66.92;100749.78;5056368;28;45359;-79
2022/11/20 11:24:25;;;;;;;;;16.25;16.00;;;;;16.42;67.26;100767.53;5059410;28;45488;-80
2022/11/20 11:26:57;;;;;;;;;5.00;3.67;;;;;16.48;66.87;100746.47;5057924;28;45604;-78
2022/11/20 11:29:23;;;;;;;;;4.00;4.00;;;;;16.80;66.89;100753.78;5059659;28;45306;-80
2022/11/20 11:31:49;;;;;;;;;8.67;6.00;;;;;16.91;65.86;100738.09;5041492;28;45311;-80
2022/11/20 11:34:17;;;;;;;;;4.67;2.33;;;;;17.26;65.05;100761.16;5041894;28;46499;-80
2022/11/20 11:36:55;;;;;;;;;3.00;3.00;;;;;17.29;64.78;100742.72;5059466;28;46313;-80
2022/11/20 11:39:21;;;;;;;;;4.00;2.00;;;;;17.29;63.96;100754.16;5059399;28;45243;-80